createdAt,value
2018-11-10T00:00:18.525Z,34.67
2018-11-10T00:02:47.155Z,34.40
2018-11-10T00:05:15.633Z,37.90
2018-11-10T00:07:43.711Z,36.07
2018-11-10T00:10:11.787Z,38.33
2018-11-10T00:12:39.789Z,34.43
2018-11-10T00:15:09.525Z,35.00
2018-11-10T00:17:37.579Z,34.23
2018-11-10T00:20:05.675Z,35.10
2018-11-10T00:22:33.750Z,37.63
2018-11-10T00:25:01.826Z,34.27
2018-11-10T00:27:29.866Z,36.30
2018-11-10T00:29:57.882Z,35.10
2018-11-10T00:32:25.941Z,37.80
2018-11-10T00:34:54.065Z,38.60
2018-11-10T00:37:22.142Z,35.40
2018-11-10T00:39:50.274Z,38.07
2018-11-10T00:42:18.626Z,34.80
2018-11-10T00:44:46.705Z,38.97
2018-11-10T00:47:14.713Z,34.47
2018-11-10T00:49:42.766Z,34.00
2018-11-10T00:52:10.765Z,34.87
2018-11-10T00:54:38.787Z,37.57
2018-11-10T00:57:07.127Z,35.57
2018-11-10T00:59:35.154Z,34.77
2018-11-10T01:02:03.257Z,35.70
2018-11-10T01:04:31.309Z,36.03
2018-11-10T01:06:59.463Z,37.90
2018-11-10T01:09:27.559Z,38.23
2018-11-10T01:11:55.641Z,33.40
2018-11-10T01:14:23.717Z,33.07
2018-11-10T01:16:51.733Z,37.60
2018-11-10T01:19:19.885Z,33.97
2018-11-10T01:21:47.901Z,37.07
2018-11-10T01:24:16.013Z,35.40
2018-11-10T01:26:44.022Z,36.07
2018-11-10T01:29:18.509Z,36.87
2018-11-10T01:31:46.519Z,35.67
2018-11-10T01:34:14.530Z,38.10
2018-11-10T01:36:42.622Z,34.40
2018-11-10T01:39:10.709Z,36.73
2018-11-10T01:41:39.237Z,36.97
2018-11-10T01:44:08.921Z,34.63
2018-11-10T01:46:36.934Z,35.63
2018-11-10T01:49:05.610Z,37.67
2018-11-10T01:51:33.706Z,36.97
2018-11-10T01:54:01.966Z,41.70
2018-11-10T01:56:30.058Z,37.10
2018-11-10T01:58:59.148Z,37.40
2018-11-10T02:01:27.558Z,36.60
2018-11-10T02:03:55.846Z,40.77
2018-11-10T02:06:23.967Z,36.20
2018-11-10T02:08:52.009Z,34.20
2018-11-10T02:11:20.052Z,37.47
2018-11-10T02:13:48.156Z,34.73
2018-11-10T02:16:16.164Z,35.60
2018-11-10T02:18:44.345Z,35.10
2018-11-10T02:21:12.410Z,35.27
2018-11-10T02:23:40.725Z,35.80
2018-11-10T02:26:08.742Z,38.57
2018-11-10T02:28:36.794Z,36.73
2018-11-10T02:31:04.850Z,36.27
2018-11-10T02:33:32.885Z,35.93
2018-11-10T02:36:00.898Z,37.47
2018-11-10T02:38:28.975Z,32.03
2018-11-10T02:40:56.987Z,34.43
2018-11-10T02:43:25.086Z,34.50
2018-11-10T02:45:53.145Z,33.90
2018-11-10T02:48:21.224Z,35.73
2018-11-10T02:50:49.232Z,34.03
2018-11-10T02:53:17.242Z,34.60
2018-11-10T02:55:45.286Z,32.67
2018-11-10T02:58:13.286Z,32.23
2018-11-10T03:00:41.382Z,32.43
2018-11-10T03:03:09.388Z,33.30
2018-11-10T03:05:37.413Z,32.77
2018-11-10T03:08:05.629Z,31.13
2018-11-10T03:10:33.718Z,30.80
2018-11-10T03:13:01.797Z,32.87
2018-11-10T03:15:29.825Z,34.27
2018-11-10T03:17:57.862Z,30.33
2018-11-10T03:20:25.956Z,31.47
2018-11-10T03:22:53.945Z,29.60
2018-11-10T03:25:21.958Z,29.70
2018-11-10T03:27:49.998Z,28.20
2018-11-10T03:30:18.013Z,28.80
2018-11-10T03:32:46.360Z,29.13
2018-11-10T03:35:14.438Z,31.97
2018-11-10T03:37:42.502Z,31.03
2018-11-10T03:40:11.579Z,31.57
2018-11-10T03:42:40.136Z,29.03
2018-11-10T03:45:09.557Z,27.20
2018-11-10T03:47:37.566Z,24.90
2018-11-10T03:50:06.134Z,26.03
2018-11-10T03:52:34.169Z,28.47
2018-11-10T03:55:02.220Z,28.30
2018-11-10T03:57:30.280Z,29.40
2018-11-10T03:59:58.429Z,30.10
2018-11-10T04:02:26.866Z,32.80
2018-11-10T04:04:54.886Z,30.00
2018-11-10T04:09:56.510Z,28.30
2018-11-10T04:12:24.598Z,33.73
2018-11-10T04:14:52.968Z,29.33
2018-11-10T04:17:21.018Z,29.07
2018-11-10T04:19:49.169Z,30.00
2018-11-10T04:22:21.674Z,29.30
2018-11-10T04:24:49.760Z,31.47
2018-11-10T04:27:17.801Z,28.23
2018-11-10T04:29:45.806Z,35.80
2018-11-10T04:32:13.902Z,29.87
2018-11-10T04:34:41.944Z,31.27
2018-11-10T04:37:09.978Z,29.07
2018-11-10T04:39:38.037Z,31.53
2018-11-10T04:42:06.042Z,33.60
2018-11-10T04:44:34.127Z,33.93
2018-11-10T04:47:02.171Z,31.57
2018-11-10T04:49:30.200Z,29.90
2018-11-10T04:51:58.286Z,33.90
2018-11-10T04:54:26.328Z,31.90
2018-11-10T04:56:54.389Z,31.13
2018-11-10T04:59:22.425Z,32.10
2018-11-10T05:01:50.469Z,30.87
2018-11-10T05:04:18.505Z,30.70
2018-11-10T05:06:46.673Z,30.57
2018-11-10T05:09:14.761Z,30.87
2018-11-10T05:11:42.761Z,31.70
2018-11-10T05:14:10.839Z,30.90
2018-11-10T05:16:38.847Z,31.47
2018-11-10T05:19:07.001Z,32.17
2018-11-10T05:21:35.058Z,34.30
2018-11-10T05:24:03.258Z,32.23
2018-11-10T05:26:31.347Z,33.97
2018-11-10T05:28:59.349Z,32.07
2018-11-10T05:31:27.719Z,33.30
2018-11-10T05:33:55.777Z,30.40
2018-11-10T05:36:23.791Z,32.37
2018-11-10T05:38:51.850Z,32.67
2018-11-10T05:41:19.953Z,32.80
2018-11-10T05:43:48.035Z,29.57
2018-11-10T05:46:16.077Z,29.97
2018-11-10T05:48:44.107Z,31.97
2018-11-10T05:51:12.158Z,29.63
2018-11-10T05:53:40.276Z,30.43
2018-11-10T05:56:09.277Z,28.70
2018-11-10T05:58:37.400Z,31.17
2018-11-10T06:01:06.164Z,33.80
2018-11-10T06:03:34.253Z,29.20
2018-11-10T06:06:02.268Z,27.30
2018-11-10T06:08:30.306Z,29.50
2018-11-10T06:10:58.313Z,27.93
2018-11-10T06:13:26.390Z,29.07
2018-11-10T06:15:54.533Z,28.70
2018-11-10T06:18:22.489Z,29.27
2018-11-10T06:20:50.841Z,31.10
2018-11-10T06:23:18.907Z,27.10
2018-11-10T06:25:47.322Z,29.80
2018-11-10T06:28:15.380Z,26.43
2018-11-10T06:30:43.470Z,28.10
2018-11-10T06:33:11.546Z,27.87
2018-11-10T06:35:39.670Z,27.40
2018-11-10T06:38:07.746Z,32.37
2018-11-10T06:40:36.090Z,32.70
2018-11-10T06:43:04.650Z,28.37
2018-11-10T06:45:32.728Z,33.60
2018-11-10T06:48:00.801Z,28.97
2018-11-10T06:50:28.904Z,29.10
2018-11-10T06:52:56.993Z,32.37
2018-11-10T06:55:25.059Z,29.60
2018-11-10T06:57:53.111Z,34.10
2018-11-10T07:00:21.210Z,33.87
2018-11-10T07:02:49.282Z,28.90
2018-11-10T07:05:17.400Z,32.70
2018-11-10T07:07:45.441Z,30.13
2018-11-10T07:10:13.518Z,29.63
2018-11-10T07:12:41.594Z,32.40
2018-11-10T07:15:09.724Z,32.20
2018-11-10T07:17:38.093Z,32.37
2018-11-10T07:20:06.398Z,34.40
2018-11-10T07:22:34.422Z,33.37
2018-11-10T07:25:02.833Z,32.90
2018-11-10T07:27:30.794Z,31.87
2018-11-10T07:29:58.900Z,31.80
2018-11-10T07:32:27.024Z,27.67
2018-11-10T07:34:55.159Z,33.40
2018-11-10T07:37:23.319Z,28.80
2018-11-10T07:39:51.353Z,31.33
2018-11-10T07:42:19.489Z,32.73
2018-11-10T07:44:47.589Z,29.60
2018-11-10T07:47:15.605Z,26.70
2018-11-10T07:49:43.739Z,30.17
2018-11-10T07:52:11.906Z,30.40
2018-11-10T07:54:39.921Z,28.93
2018-11-10T07:57:08.173Z,28.07
2018-11-10T07:59:36.389Z,29.13
2018-11-10T08:02:04.657Z,28.80
2018-11-10T08:04:33.044Z,28.80
2018-11-10T08:07:01.066Z,29.07
2018-11-10T08:09:29.186Z,31.30
2018-11-10T08:11:57.673Z,26.20
2018-11-10T08:14:25.621Z,31.13
2018-11-10T08:16:53.642Z,27.93
2018-11-10T08:19:21.959Z,27.20
2018-11-10T08:21:50.038Z,26.73
2018-11-10T08:24:18.065Z,25.40
2018-11-10T08:26:46.218Z,26.83
2018-11-10T08:29:14.262Z,28.77
2018-11-10T08:31:42.422Z,27.50
2018-11-10T08:34:10.441Z,27.00
2018-11-10T08:36:38.550Z,30.00
2018-11-10T08:39:08.469Z,32.00
2018-11-10T08:41:36.664Z,31.67
2018-11-10T08:44:05.353Z,31.23
2018-11-10T08:46:33.453Z,28.47
2018-11-10T08:49:01.499Z,29.07
2018-11-10T08:51:29.853Z,30.33
2018-11-10T08:53:58.008Z,29.03
2018-11-10T08:56:26.098Z,27.97
2018-11-10T08:58:54.535Z,28.90
2018-11-10T09:01:22.553Z,26.23
2018-11-10T09:03:50.653Z,29.37
2018-11-10T09:06:19.045Z,30.30
2018-11-10T09:08:47.045Z,29.80
2018-11-10T09:11:15.113Z,27.00
2018-11-10T09:13:43.186Z,28.50
2018-11-10T09:16:11.269Z,26.10
2018-11-10T09:18:39.666Z,27.67
2018-11-10T09:21:07.831Z,28.70
2018-11-10T09:23:35.950Z,31.60
2018-11-10T09:26:04.026Z,26.37
2018-11-10T09:28:32.137Z,27.43
2018-11-10T09:31:00.224Z,25.60
2018-11-10T09:33:28.319Z,27.27
2018-11-10T09:35:56.398Z,28.73
2018-11-10T09:38:24.418Z,26.43
2018-11-10T09:40:52.525Z,25.70
2018-11-10T09:43:21.017Z,26.10
2018-11-10T09:45:49.046Z,27.50
2018-11-10T09:48:17.050Z,26.50
2018-11-10T09:50:45.280Z,25.53
2018-11-10T09:53:13.354Z,27.03
2018-11-10T09:55:41.422Z,26.47
2018-11-10T09:58:09.442Z,24.90
2018-11-10T10:00:37.497Z,23.67
2018-11-10T10:03:05.908Z,25.80
2018-11-10T10:05:33.935Z,26.90
2018-11-10T10:08:01.959Z,23.10
2018-11-10T10:10:30.043Z,25.73
2018-11-10T10:12:58.097Z,26.30
2018-11-10T10:15:26.245Z,23.90
2018-11-10T10:17:54.335Z,23.90
2018-11-10T10:20:22.393Z,27.17
2018-11-10T10:22:51.094Z,23.13
2018-11-10T10:25:19.679Z,25.70
2018-11-10T10:27:48.477Z,24.33
2018-11-10T10:30:24.625Z,24.40
2018-11-10T10:32:53.259Z,24.37
2018-11-10T10:35:21.454Z,24.50
2018-11-10T10:37:50.236Z,23.60
2018-11-10T10:40:18.474Z,24.03
2018-11-10T10:42:47.052Z,23.53
2018-11-10T10:45:16.549Z,25.50
2018-11-10T10:47:44.813Z,22.73
2018-11-10T10:50:14.039Z,24.03
2018-11-10T10:52:42.282Z,21.17
2018-11-10T10:55:11.743Z,23.83
2018-11-10T10:57:39.778Z,22.70
2018-11-10T11:00:14.904Z,22.83
2018-11-10T11:02:48.621Z,23.07
2018-11-10T11:05:20.305Z,20.20
2018-11-10T11:07:48.656Z,25.23
2018-11-10T11:10:16.669Z,22.93
2018-11-10T11:12:44.731Z,25.80
2018-11-10T11:15:12.976Z,24.57
2018-11-10T11:17:41.121Z,27.63
2018-11-10T11:20:09.433Z,24.17
2018-11-10T11:22:37.550Z,21.50
2018-11-10T11:25:05.882Z,23.20
2018-11-10T11:27:34.147Z,26.47
2018-11-10T11:30:02.738Z,23.00
2018-11-10T11:32:31.078Z,25.27
2018-11-10T11:34:59.324Z,21.57
2018-11-10T11:37:27.421Z,23.67
2018-11-10T11:39:55.496Z,20.50
2018-11-10T11:42:23.511Z,23.53
2018-11-10T11:44:51.592Z,21.97
2018-11-10T11:47:19.618Z,23.37
2018-11-10T11:49:47.744Z,22.77
2018-11-10T11:52:15.854Z,22.67
2018-11-10T11:54:54.433Z,23.87
2018-11-10T11:57:22.480Z,25.27
2018-11-10T11:59:50.514Z,24.03
2018-11-10T12:02:18.740Z,23.43
2018-11-10T12:04:46.730Z,22.33
2018-11-10T12:07:14.817Z,24.87
2018-11-10T12:09:42.929Z,25.40
2018-11-10T12:12:11.018Z,23.55
2018-11-10T12:14:39.033Z,20.73
2018-11-10T12:17:07.214Z,25.17
2018-11-10T12:19:35.172Z,23.03
2018-11-10T12:22:03.842Z,22.97
2018-11-10T12:24:31.998Z,23.43
2018-11-10T12:27:00.075Z,22.20
2018-11-10T12:29:29.011Z,23.23
2018-11-10T12:31:57.205Z,21.00
2018-11-10T12:34:25.205Z,22.87
2018-11-10T12:36:53.306Z,20.80
2018-11-10T12:39:21.378Z,21.70
2018-11-10T12:41:49.526Z,22.83
2018-11-10T12:44:17.626Z,22.07
2018-11-10T12:46:45.657Z,21.57
2018-11-10T12:49:14.109Z,22.87
2018-11-10T12:51:42.046Z,22.13
2018-11-10T12:54:10.058Z,22.70
2018-11-10T12:56:38.292Z,22.47
2018-11-10T12:59:06.586Z,22.23
2018-11-10T13:01:34.634Z,22.53
2018-11-10T13:04:02.747Z,24.57
2018-11-10T13:06:30.838Z,22.13
2018-11-10T13:08:58.977Z,21.87
2018-11-10T13:11:27.023Z,21.73
2018-11-10T13:13:54.998Z,21.83
2018-11-10T13:16:23.101Z,22.90
2018-11-10T13:18:51.146Z,21.33
2018-11-10T13:21:19.210Z,23.93
2018-11-10T13:23:47.310Z,22.40
2018-11-10T13:26:15.394Z,24.30
2018-11-10T13:28:43.481Z,23.50
2018-11-10T13:31:11.566Z,23.60
2018-11-10T13:33:39.667Z,22.63
2018-11-10T13:36:07.665Z,21.50
2018-11-10T13:38:35.733Z,20.80
2018-11-10T13:41:03.810Z,20.60
2018-11-10T13:43:31.855Z,23.20
2018-11-10T13:45:59.974Z,21.67
2018-11-10T13:48:28.058Z,24.00
2018-11-10T13:50:56.263Z,22.10
2018-11-10T13:53:24.115Z,21.17
2018-11-10T13:55:52.220Z,19.93
2018-11-10T13:58:20.386Z,20.67
2018-11-10T14:00:48.441Z,21.47
2018-11-10T14:03:16.545Z,22.40
2018-11-10T14:05:44.570Z,21.80
2018-11-10T14:08:12.617Z,20.97
2018-11-10T14:10:40.662Z,22.73
2018-11-10T14:13:08.680Z,20.90
2018-11-10T14:15:36.777Z,22.83
2018-11-10T14:18:05.027Z,19.83
2018-11-10T14:20:33.263Z,21.57
2018-11-10T14:23:01.439Z,20.30
2018-11-10T14:25:29.466Z,20.47
2018-11-10T14:27:57.493Z,22.03
2018-11-10T14:30:25.801Z,21.23
2018-11-10T14:32:53.877Z,20.83
2018-11-10T14:35:21.967Z,20.00
2018-11-10T14:37:50.037Z,21.33
2018-11-10T14:40:18.409Z,21.20
2018-11-10T14:42:46.780Z,22.03
2018-11-10T14:45:16.184Z,19.70
2018-11-10T14:47:44.594Z,19.20
2018-11-10T14:50:13.378Z,21.50
2018-11-10T14:52:41.716Z,20.30
2018-11-10T14:55:10.557Z,18.30
2018-11-10T14:57:38.714Z,20.63
2018-11-10T15:00:12.054Z,22.37
2018-11-10T15:02:40.138Z,24.17
2018-11-10T15:05:09.209Z,22.73
2018-11-10T15:07:37.298Z,22.00
2018-11-10T15:10:07.362Z,23.50
2018-11-10T15:12:35.384Z,23.10
2018-11-10T15:15:03.398Z,22.23
2018-11-10T15:17:31.583Z,20.30
2018-11-10T15:19:59.585Z,20.37
2018-11-10T15:22:27.705Z,25.60
2018-11-10T15:24:55.863Z,23.23
2018-11-10T15:27:23.873Z,24.07
2018-11-10T15:29:52.006Z,25.30
2018-11-10T15:32:20.010Z,22.20
2018-11-10T15:34:48.060Z,25.20
2018-11-10T15:37:16.123Z,22.50
2018-11-10T15:39:44.224Z,27.55
2018-11-10T15:42:12.278Z,22.97
2018-11-10T15:44:40.390Z,23.07
2018-11-10T15:47:08.457Z,22.70
2018-11-10T15:49:36.877Z,21.70
2018-11-10T15:52:05.143Z,20.97
2018-11-10T15:54:33.189Z,25.40
2018-11-10T15:57:01.343Z,23.97
2018-11-10T15:59:29.441Z,22.83
2018-11-10T16:01:57.466Z,26.33
2018-11-10T16:04:25.642Z,24.87
2018-11-10T16:06:53.981Z,27.70
2018-11-10T16:09:22.106Z,25.40
2018-11-10T16:11:50.062Z,27.10
2018-11-10T16:14:18.258Z,24.87
2018-11-10T16:16:46.305Z,28.33
2018-11-10T16:19:14.714Z,27.93
2018-11-10T16:21:42.765Z,29.93
2018-11-10T16:24:10.930Z,29.83
2018-11-10T16:26:38.981Z,32.13
2018-11-10T16:29:07.043Z,29.60
2018-11-10T16:31:35.438Z,28.93
2018-11-10T16:34:03.456Z,28.63
2018-11-10T16:36:31.480Z,25.53
2018-11-10T16:38:59.533Z,26.80
2018-11-10T16:41:27.674Z,28.17
2018-11-10T16:43:55.730Z,27.10
2018-11-10T16:46:23.817Z,26.33
2018-11-10T16:48:52.099Z,27.17
2018-11-10T16:51:20.209Z,28.20
2018-11-10T16:53:48.291Z,25.70
2018-11-10T16:56:16.345Z,28.80
2018-11-10T16:58:44.411Z,28.30
2018-11-10T17:01:12.555Z,28.67
2018-11-10T17:03:40.708Z,27.60
2018-11-10T17:06:08.820Z,28.07
2018-11-10T17:08:37.002Z,27.37
2018-11-10T17:11:05.830Z,28.67
2018-11-10T17:13:34.019Z,26.30
2018-11-10T17:16:02.035Z,27.70
2018-11-10T17:18:30.230Z,30.20
2018-11-10T17:20:58.364Z,29.40
2018-11-10T17:23:26.409Z,29.67
2018-11-10T17:25:54.423Z,33.07
2018-11-10T17:28:22.514Z,31.77
2018-11-10T17:30:50.562Z,33.03
2018-11-10T17:33:18.645Z,33.10
2018-11-10T17:35:46.654Z,34.17
2018-11-10T17:38:15.018Z,34.43
2018-11-10T17:40:43.161Z,31.37
2018-11-10T17:43:11.192Z,33.67
2018-11-10T17:45:39.274Z,33.77
2018-11-10T17:48:07.535Z,34.13
2018-11-10T17:50:35.969Z,34.37
2018-11-10T17:53:04.041Z,32.73
2018-11-10T17:55:32.082Z,32.80
2018-11-10T17:58:00.238Z,31.60
2018-11-10T18:00:28.288Z,31.27
2018-11-10T18:02:56.489Z,30.77
2018-11-10T18:05:24.606Z,30.17
2018-11-10T18:07:52.749Z,31.77
2018-11-10T18:10:21.002Z,31.33
2018-11-10T18:12:49.309Z,32.87
2018-11-10T18:15:17.434Z,35.17
2018-11-10T18:17:45.698Z,34.17
2018-11-10T18:20:15.045Z,30.50
2018-11-10T18:22:43.553Z,32.77
2018-11-10T18:25:12.613Z,33.27
2018-11-10T18:27:40.926Z,32.40
2018-11-10T18:30:10.482Z,33.80
2018-11-10T18:32:38.978Z,33.93
2018-11-10T18:35:07.900Z,31.87
2018-11-10T18:37:36.345Z,33.20
2018-11-10T18:40:04.650Z,34.77
2018-11-10T18:42:32.614Z,33.67
2018-11-10T18:45:00.721Z,34.67
2018-11-10T18:47:28.796Z,33.40
2018-11-10T18:49:56.834Z,34.43
2018-11-10T18:52:24.876Z,33.27
2018-11-10T18:54:53.221Z,33.70
2018-11-10T18:57:21.469Z,32.77
2018-11-10T18:59:49.272Z,31.90
2018-11-10T19:02:17.318Z,32.43
2018-11-10T19:04:45.564Z,32.60
2018-11-10T19:07:13.891Z,33.30
2018-11-10T19:09:41.913Z,31.30
2018-11-10T19:12:10.021Z,30.60
2018-11-10T19:14:38.117Z,34.20
2018-11-10T19:17:06.138Z,33.67
2018-11-10T19:19:34.629Z,31.87
2018-11-10T19:22:02.653Z,32.30
2018-11-10T19:24:30.649Z,28.73
2018-11-10T19:26:59.037Z,32.33
2018-11-10T19:29:27.060Z,29.37
2018-11-10T19:31:55.061Z,30.03
2018-11-10T19:34:23.111Z,30.77
2018-11-10T19:36:51.745Z,32.80
2018-11-10T19:39:20.074Z,32.33
2018-11-10T19:41:48.110Z,31.67
2018-11-10T19:44:16.196Z,32.40
2018-11-10T19:46:44.483Z,31.80
2018-11-10T19:49:12.504Z,32.07
2018-11-10T19:51:40.978Z,31.43
2018-11-10T19:54:08.793Z,31.43
2018-11-10T19:56:36.812Z,33.43
2018-11-10T19:59:07.745Z,30.80
2018-11-10T20:01:36.122Z,31.60
2018-11-10T20:04:04.166Z,33.60
2018-11-10T20:06:32.424Z,30.00
2018-11-10T20:09:00.507Z,34.13
2018-11-10T20:11:29.007Z,31.80
2018-11-10T20:13:58.043Z,32.43
2018-11-10T20:16:26.052Z,32.30
2018-11-10T20:18:54.075Z,31.80
2018-11-10T20:21:22.321Z,32.00
2018-11-10T20:23:50.388Z,34.30
2018-11-10T20:26:18.409Z,35.57
2018-11-10T20:28:46.486Z,32.50
2018-11-10T20:31:14.962Z,34.67
2018-11-10T20:33:42.991Z,35.33
2018-11-10T20:36:11.005Z,37.30
2018-11-10T20:38:39.443Z,36.27
2018-11-10T20:41:07.808Z,33.00
2018-11-10T20:43:35.813Z,33.80
2018-11-10T20:46:04.058Z,33.83
2018-11-10T20:48:32.370Z,29.27
2018-11-10T20:51:00.520Z,35.70
2018-11-10T20:53:28.461Z,36.83
2018-11-10T20:55:56.846Z,35.07
2018-11-10T20:58:24.865Z,37.50
2018-11-10T21:00:52.893Z,32.20
2018-11-10T21:03:21.295Z,30.33
2018-11-10T21:05:49.504Z,31.03
2018-11-10T21:08:17.374Z,30.00
2018-11-10T21:10:45.446Z,27.57
2018-11-10T21:13:13.463Z,26.37
2018-11-10T21:15:41.525Z,29.17
2018-11-10T21:18:09.604Z,29.27
2018-11-10T21:20:37.670Z,29.60
2018-11-10T21:23:05.706Z,29.20
2018-11-10T21:25:33.709Z,33.03
2018-11-10T21:28:01.794Z,40.60
2018-11-10T21:30:29.801Z,37.97
2018-11-10T21:32:57.858Z,32.10
2018-11-10T21:35:25.924Z,30.60
2018-11-10T21:37:53.938Z,32.93
2018-11-10T21:40:21.993Z,29.70
2018-11-10T21:42:50.038Z,30.67
2018-11-10T21:45:18.509Z,32.57
2018-11-10T21:47:46.799Z,28.27
2018-11-10T21:50:16.174Z,33.27
2018-11-10T21:52:44.777Z,35.50
2018-11-10T21:55:14.533Z,32.10
2018-11-10T21:57:43.329Z,32.13
2018-11-10T22:00:13.060Z,35.30
2018-11-10T22:02:42.183Z,34.27
2018-11-10T22:05:10.253Z,32.37
2018-11-10T22:07:38.536Z,33.80
2018-11-10T22:10:08.190Z,36.27
2018-11-10T22:12:36.250Z,36.97
2018-11-10T22:15:04.573Z,38.37
2018-11-10T22:17:32.593Z,38.23
2018-11-10T22:20:00.712Z,39.20
2018-11-10T22:22:28.809Z,37.00
2018-11-10T22:24:56.806Z,38.17
2018-11-10T22:27:24.845Z,34.87
2018-11-10T22:29:52.901Z,32.13
2018-11-10T22:32:20.922Z,33.93
2018-11-10T22:34:48.986Z,36.27
2018-11-10T22:37:16.997Z,36.40
2018-11-10T22:39:45.050Z,35.50
2018-11-10T22:42:13.154Z,33.47
2018-11-10T22:44:41.222Z,33.87
2018-11-10T22:47:09.326Z,35.97
2018-11-10T22:49:37.410Z,35.53
2018-11-10T22:52:05.659Z,42.03
2018-11-10T22:54:33.693Z,40.00
2018-11-10T22:57:01.800Z,42.73
2018-11-10T22:59:29.909Z,49.27
2018-11-10T23:01:57.934Z,50.23
2018-11-10T23:04:25.946Z,54.03
2018-11-10T23:06:54.355Z,45.87
2018-11-10T23:09:22.438Z,46.40
2018-11-10T23:11:50.533Z,42.97
2018-11-10T23:14:19.989Z,45.53
2018-11-10T23:16:48.196Z,39.80
2018-11-10T23:19:16.726Z,42.07
2018-11-10T23:21:44.854Z,39.17
2018-11-10T23:24:13.251Z,35.80
2018-11-10T23:26:41.262Z,31.80
2018-11-10T23:29:09.273Z,34.17
2018-11-10T23:31:37.352Z,31.33
2018-11-10T23:34:05.394Z,32.80
2018-11-10T23:36:33.716Z,31.73
2018-11-10T23:39:02.349Z,28.77
2018-11-10T23:41:30.654Z,28.97
2018-11-10T23:43:59.070Z,32.60
2018-11-10T23:46:27.186Z,39.60
2018-11-10T23:48:55.197Z,26.27
2018-11-10T23:51:23.294Z,25.83
2018-11-10T23:53:51.409Z,30.50
2018-11-10T23:56:19.469Z,29.57
2018-11-10T23:58:47.513Z,31.70
